Time;durP1;ratioP1;P1;durP2;ratioP2;P2;SDS_P1;SDS_P2;PMS_P1;PMS_P2;Temp;Humidity;BMP_temperature;BMP_pressure;BME280_temperature;BME280_humidity;BME280_pressure;Samples;Min_cycle;Max_cycle;Signal;HPM_P1;HPM_P2
2021/06/28 00:04:03;;;;;;;13.30;10.75;;;;;16.30;100810.00;;;;10517711;28;20662;-79
2021/06/28 00:09:05;;;;;;;14.48;10.40;;;;;16.20;100798.00;;;;10502166;28;20193;-78
2021/06/28 00:14:07;;;;;;;13.43;11.63;;;;;16.30;100786.00;;;;10500508;28;20212;-78
2021/06/28 00:19:09;;;;;;;16.73;12.33;;;;;16.30;100775.00;;;;10483671;28;20683;-78
2021/06/28 00:24:11;;;;;;;18.67;12.50;;;;;16.30;100781.00;;;;10514802;28;20272;-78
2021/06/28 00:29:13;;;;;;;15.80;12.17;;;;;16.20;100779.00;;;;10476165;28;20332;-78
2021/06/28 00:34:15;;;;;;;17.00;13.43;;;;;16.20;100794.00;;;;10475220;28;20210;-78
2021/06/28 00:39:17;;;;;;;22.37;15.07;;;;;16.20;100790.00;;;;10458100;28;20221;-78
2021/06/28 00:44:19;;;;;;;21.43;16.50;;;;;16.20;100793.00;;;;10457706;28;20583;-79
2021/06/28 00:49:20;;;;;;;19.90;15.80;;;;;16.30;100787.00;;;;10455955;28;20190;-78
2021/06/28 00:54:23;;;;;;;21.10;16.30;;;;;16.30;100784.00;;;;10510892;28;20250;-78
2021/06/28 00:59:27;;;;;;;19.05;14.88;;;;;16.30;100787.00;;;;10498388;28;20637;-78
2021/06/28 01:04:30;;;;;;;21.13;14.68;;;;;16.20;100791.00;;;;10510940;28;20250;-76
2021/06/28 01:09:31;;;;;;;28.83;17.13;;;;;16.20;100820.00;;;;10492056;28;20686;-76
2021/06/28 01:14:34;;;;;;;23.20;15.85;;;;;16.10;100848.00;;;;10525365;28;20196;-77
2021/06/28 01:19:38;;;;;;;21.87;13.57;;;;;16.00;100864.00;;;;10525086;28;20619;-75
2021/06/28 01:24:40;;;;;;;19.85;14.40;;;;;15.90;100874.00;;;;10457869;28;20536;-76
2021/06/28 01:29:42;;;;;;;18.43;15.03;;;;;15.90;100865.00;;;;10433740;28;20202;-76
2021/06/28 01:34:44;;;;;;;23.40;16.03;;;;;15.90;100848.00;;;;10449755;28;20222;-76
2021/06/28 01:39:48;;;;;;;26.00;17.43;;;;;15.90;100847.00;;;;10466203;28;20266;-77
2021/06/28 01:44:51;;;;;;;19.30;15.27;;;;;15.90;100859.00;;;;10449217;28;20198;-77
2021/06/28 01:49:53;;;;;;;20.33;16.63;;;;;15.80;100852.00;;;;10448970;28;20197;-77
2021/06/28 01:54:55;;;;;;;21.77;15.17;;;;;15.80;100869.00;;;;10465637;28;20212;-77
2021/06/28 01:59:57;;;;;;;21.93;16.47;;;;;15.80;100851.00;;;;10448346;28;20198;-76
2021/06/28 02:04:59;;;;;;;26.37;16.03;;;;;15.80;100855.00;;;;10464982;28;20698;-76
2021/06/28 02:10:03;;;;;;;24.87;16.13;;;;;15.70;100847.00;;;;10447955;28;20247;-76
2021/06/28 02:15:05;;;;;;;22.93;18.23;;;;;15.70;100834.00;;;;10431571;28;20205;-76
2021/06/28 02:20:08;;;;;;;22.87;16.97;;;;;15.60;100843.00;;;;10447959;28;20205;-76
2021/06/28 02:25:11;;;;;;;25.13;15.27;;;;;15.50;100844.00;;;;10480507;28;20189;-77
2021/06/28 02:30:16;;;;;;;29.00;17.17;;;;;15.50;100825.00;;;;10480404;28;20272;-77
2021/06/28 02:35:18;;;;;;;22.70;17.47;;;;;15.40;100817.00;;;;10446961;28;20216;-76
2021/06/28 02:40:20;;;;;;;22.93;18.70;;;;;15.40;100809.00;;;;10447044;28;20422;-76
2021/06/28 02:45:43;;;;;;;25.77;18.40;;;;;15.40;100807.00;;;;10455398;28;20593;-77
2021/06/28 02:50:45;;;;;;;25.80;17.57;;;;;15.40;100811.00;;;;10463789;28;20193;-77
2021/06/28 02:55:50;;;;;;;36.40;18.77;;;;;15.30;100822.00;;;;10453994;28;20319;-76
2021/06/28 03:00:52;;;;;;;44.57;21.17;;;;;15.40;100829.00;;;;10480489;28;20193;-77
2021/06/28 03:05:54;;;;;;;41.63;21.33;;;;;15.40;100823.00;;;;10446789;28;20220;-77
2021/06/28 03:10:56;;;;;;;34.17;21.27;;;;;15.40;100827.00;;;;10462391;28;20247;-77
2021/06/28 03:15:58;;;;;;;34.00;19.97;;;;;15.40;100825.00;;;;10446448;28;20194;-77
2021/06/28 03:21:03;;;;;;;32.87;19.80;;;;;15.50;100813.00;;;;10479533;28;20565;-76
2021/06/28 03:26:06;;;;;;;40.00;22.13;;;;;15.60;100809.00;;;;10515242;28;20205;-77
2021/06/28 03:31:09;;;;;;;47.90;22.83;;;;;15.60;100798.00;;;;10521031;28;20242;-77
2021/06/28 03:36:11;;;;;;;35.77;21.77;;;;;15.60;100802.00;;;;10521356;28;20311;-76
2021/06/28 03:41:19;;;;;;;79.13;22.33;;;;;15.60;100806.00;;;;10503650;28;20197;-77
2021/06/28 03:46:21;;;;;;;59.77;21.73;;;;;15.60;100808.00;;;;10504452;28;20245;-77
2021/06/28 03:51:23;;;;;;;44.97;20.37;;;;;15.60;100821.00;;;;10503713;28;20269;-77
2021/06/28 03:56:25;;;;;;;47.03;22.23;;;;;15.70;100830.00;;;;10504512;28;20279;-77
2021/06/28 04:01:27;;;;;;;59.80;24.47;;;;;15.90;100825.00;;;;10520778;28;20197;-76
2021/06/28 04:06:29;;;;;;;61.97;24.35;;;;;16.10;100813.00;;;;10520550;28;20236;-76
2021/06/28 04:11:31;;;;;;;39.43;22.90;;;;;16.30;100810.00;;;;10486242;28;20705;-76
2021/06/28 04:16:33;;;;;;;39.57;24.57;;;;;16.50;100812.00;;;;10504307;28;20234;-77
2021/06/28 04:21:35;;;;;;;36.42;22.83;;;;;16.70;100820.00;;;;10487331;28;20790;-76
2021/06/28 04:26:37;;;;;;;42.88;24.58;;;;;16.80;100828.00;;;;10527856;28;20205;-76
2021/06/28 04:31:39;;;;;;;34.80;21.67;;;;;17.00;100828.00;;;;10527510;28;20188;-76
2021/06/28 04:36:41;;;;;;;28.35;21.33;;;;;17.40;100813.00;;;;10502639;28;20204;-76
2021/06/28 04:41:43;;;;;;;29.60;20.13;;;;;17.60;100812.00;;;;10485204;28;20197;-76
2021/06/28 04:46:45;;;;;;;25.17;18.73;;;;;17.80;100805.00;;;;10484274;28;20569;-77
2021/06/28 04:51:48;;;;;;;29.50;19.38;;;;;18.00;100812.00;;;;10468875;28;20189;-76
2021/06/28 04:56:50;;;;;;;26.45;18.60;;;;;18.20;100804.00;;;;10483307;28;20216;-76
2021/06/28 05:01:51;;;;;;;29.95;19.63;;;;;18.30;100804.00;;;;10482664;28;20230;-76
2021/06/28 05:06:53;;;;;;;24.40;18.48;;;;;18.50;100807.00;;;;10544290;28;20258;-76
2021/06/28 05:11:55;;;;;;;24.15;18.55;;;;;18.60;100802.00;;;;10498378;28;20726;-77
2021/06/28 05:16:57;;;;;;;24.63;18.70;;;;;18.60;100805.00;;;;10525241;28;20247;-77
2021/06/28 05:22:00;;;;;;;25.38;17.65;;;;;18.60;100800.00;;;;10503171;28;20284;-76
2021/06/28 05:27:03;;;;;;;21.40;16.88;;;;;18.60;100784.00;;;;10492185;28;20251;-77
2021/06/28 05:32:05;;;;;;;23.85;17.55;;;;;18.60;100793.00;;;;10508553;28;20659;-76
2021/06/28 05:37:07;;;;;;;23.25;17.00;;;;;18.80;100795.00;;;;10507507;28;20193;-77
2021/06/28 05:42:09;;;;;;;20.33;17.05;;;;;19.00;100795.00;;;;10524782;28;20599;-77
2021/06/28 05:47:12;;;;;;;18.73;16.73;;;;;19.20;100777.00;;;;10490932;28;20217;-76
2021/06/28 05:52:18;;;;;;;18.88;16.90;;;;;19.50;100791.00;;;;10505000;28;20205;-76
2021/06/28 05:57:24;;;;;;;20.10;16.00;;;;;19.80;100785.00;;;;10522091;28;20180;-76
2021/06/28 06:02:26;;;;;;;18.45;16.52;;;;;20.20;100791.00;;;;10504950;28;20197;-76
2021/06/28 06:07:29;;;;;;;17.80;16.00;;;;;21.00;100835.00;;;;10449336;28;20309;-76
2021/06/28 06:12:31;;;;;;;15.85;13.32;;;;;21.30;100846.00;;;;10490499;28;20406;-76
2021/06/28 06:17:33;;;;;;;12.60;11.27;;;;;21.60;100848.00;;;;10523287;28;20185;-76
2021/06/28 06:22:35;;;;;;;11.70;10.57;;;;;21.40;100852.00;;;;10506873;28;20201;-76
2021/06/28 06:27:37;;;;;;;12.00;10.75;;;;;21.40;100860.00;;;;10506610;28;20545;-76
2021/06/28 06:32:39;;;;;;;17.63;10.55;;;;;22.10;100871.00;;;;10521711;28;20251;-76
2021/06/28 06:37:41;;;;;;;11.43;8.55;;;;;22.10;100887.00;;;;10522473;28;20204;-76
2021/06/28 06:42:44;;;;;;;11.60;10.43;;;;;22.00;100885.00;;;;10505388;28;20616;-76
2021/06/28 06:47:46;;;;;;;13.38;9.63;;;;;22.10;100899.00;;;;10521322;28;20205;-76
2021/06/28 06:52:49;;;;;;;10.80;8.27;;;;;22.00;100892.00;;;;10514615;28;20225;-76
2021/06/28 06:57:51;;;;;;;13.63;9.10;;;;;22.10;100884.00;;;;10480167;28;20355;-76
2021/06/28 07:02:54;;;;;;;13.25;8.45;;;;;22.50;100879.00;;;;10463811;28;20201;-76
2021/06/28 07:07:56;;;;;;;10.20;9.30;;;;;23.00;100884.00;;;;10463400;28;20214;-76
2021/06/28 07:12:58;;;;;;;15.07;10.18;;;;;22.80;100886.00;;;;10498071;28;20192;-76
2021/06/28 07:18:00;;;;;;;18.52;10.98;;;;;22.30;100886.00;;;;10480456;28;20598;-76
2021/06/28 07:23:03;;;;;;;12.90;11.57;;;;;22.60;100878.00;;;;10447029;28;20212;-77
2021/06/28 07:28:05;;;;;;;12.32;10.82;;;;;22.90;100859.00;;;;10480475;28;20233;-76
2021/06/28 07:33:07;;;;;;;13.95;11.88;;;;;23.30;100853.00;;;;10507856;28;20221;-76
2021/06/28 07:38:10;;;;;;;13.73;11.30;;;;;23.70;100866.00;;;;10504529;28;20279;-77
2021/06/28 07:43:12;;;;;;;13.05;11.68;;;;;23.90;100869.00;;;;10519974;28;20217;-76
2021/06/28 07:48:15;;;;;;;11.38;10.27;;;;;23.80;100871.00;;;;10520894;28;20239;-77
2021/06/28 07:53:17;;;;;;;13.73;11.05;;;;;23.20;100887.00;;;;10520961;28;20856;-76
2021/06/28 07:58:19;;;;;;;12.57;10.77;;;;;22.60;100900.00;;;;10524482;28;20583;-77
2021/06/28 08:03:21;;;;;;;13.20;11.80;;;;;22.30;100891.00;;;;10502066;28;20725;-77
2021/06/28 08:08:23;;;;;;;14.65;11.52;;;;;22.40;100880.00;;;;10495859;28;20213;-77
2021/06/28 08:13:25;;;;;;;11.20;10.10;;;;;22.50;100875.00;;;;10528943;28;20192;-77
2021/06/28 08:18:28;;;;;;;13.07;10.23;;;;;22.20;100871.00;;;;10495457;28;20189;-77
2021/06/28 08:23:31;;;;;;;15.05;11.23;;;;;22.00;100867.00;;;;10515144;28;20300;-77
2021/06/28 08:28:33;;;;;;;11.98;10.50;;;;;21.80;100860.00;;;;10470191;28;20213;-77
2021/06/28 08:33:36;;;;;;;12.40;10.10;;;;;21.50;100860.00;;;;10486032;28;20596;-77
2021/06/28 08:38:38;;;;;;;13.52;11.15;;;;;21.40;100858.00;;;;10472066;28;20563;-77
2021/06/28 08:43:45;;;;;;;14.63;11.45;;;;;21.50;100862.00;;;;10511189;28;20225;-77
2021/06/28 08:48:47;;;;;;;13.65;11.88;;;;;21.70;100861.00;;;;10510519;28;20209;-78
2021/06/28 08:53:54;;;;;;;12.45;11.15;;;;;21.90;100868.00;;;;10509344;28;20202;-77
2021/06/28 08:58:56;;;;;;;13.07;11.00;;;;;22.20;100868.00;;;;10468860;28;20201;-77
2021/06/28 09:03:59;;;;;;;11.63;10.35;;;;;22.30;100878.00;;;;10485157;28;20255;-77
2021/06/28 09:09:07;;;;;;;13.27;8.63;;;;;22.50;100880.00;;;;10467755;28;20217;-77
2021/06/28 09:14:11;;;;;;;9.40;7.20;;;;;22.70;100895.00;;;;10485196;28;20244;-77
2021/06/28 09:19:16;;;;;;;10.73;6.75;;;;;23.10;100900.00;;;;10501391;28;20579;-77
2021/06/28 09:24:29;;;;;;;9.45;5.88;;;;;23.00;100911.00;;;;10504709;28;20204;-77
2021/06/28 09:29:37;;;;;;;11.32;5.90;;;;;22.90;100925.00;;;;10509461;28;20209;-77
2021/06/28 09:34:40;;;;;;;20.73;7.70;;;;;22.90;100921.00;;;;10525414;28;20209;-77
2021/06/28 09:39:46;;;;;;;13.57;6.55;;;;;23.20;100919.00;;;;10525574;28;20844;-77
2021/06/28 09:45:02;;;;;;;13.57;6.55;;;;;23.10;100916.00;;;;10492716;28;20228;-77
2021/06/28 09:50:11;;;;;;;10.82;6.30;;;;;22.90;100903.00;;;;10492253;28;20251;-77
2021/06/28 09:55:37;;;;;;;9.50;5.75;;;;;23.30;100902.00;;;;10480330;28;20208;-77
2021/06/28 10:00:49;;;;;;;12.30;6.80;;;;;23.70;100907.00;;;;10483386;28;20190;-77
2021/06/28 10:06:11;;;;;;;11.88;7.20;;;;;24.10;100911.00;;;;10482943;28;20193;-77
2021/06/28 10:11:21;;;;;;;12.45;8.95;;;;;25.50;100887.00;;;;10466206;28;20189;-77
2021/06/28 10:16:26;;;;;;;10.25;7.70;;;;;26.20;100876.00;;;;10482760;28;20197;-78
2021/06/28 10:21:28;;;;;;;10.45;8.55;;;;;26.40;100867.00;;;;10465177;28;20292;-77
2021/06/28 10:26:30;;;;;;;11.27;7.82;;;;;26.80;100855.00;;;;10457144;28;20268;-78
2021/06/28 10:31:32;;;;;;;19.40;8.45;;;;;26.80;100859.00;;;;10465572;28;20225;-77
2021/06/28 10:36:38;;;;;;;9.45;7.60;;;;;27.20;100859.00;;;;10481926;28;20203;-77
2021/06/28 10:41:53;;;;;;;12.98;8.15;;;;;27.00;100864.00;;;;10464819;28;20233;-78
2021/06/28 10:46:56;;;;;;;8.77;7.20;;;;;27.10;100875.00;;;;10465948;28;20664;-78
2021/06/28 10:51:59;;;;;;;8.82;6.85;;;;;26.30;100869.00;;;;10465327;28;20228;-77
2021/06/28 10:57:38;;;;;;;6.20;5.38;;;;;25.80;100868.00;;;;10511934;28;20264;-77
2021/06/28 11:03:26;;;;;;;7.47;5.93;;;;;25.20;100874.00;;;;10525191;28;20180;-77
2021/06/28 11:09:13;;;;;;;5.38;4.97;;;;;24.90;100886.00;;;;10508210;28;20299;-77
2021/06/28 11:14:39;;;;;;;7.40;5.28;;;;;25.20;100887.00;;;;10525226;28;20538;-77
2021/06/28 11:20:03;;;;;;;7.13;5.03;;;;;26.00;100888.00;;;;10525275;28;20187;-78
2021/06/28 11:25:26;;;;;;;10.43;4.85;;;;;27.00;100876.00;;;;10480061;28;21012;-78
2021/06/28 11:30:31;;;;;;;7.75;5.03;;;;;27.40;100873.00;;;;10447950;28;20209;-78
2021/06/28 11:35:45;;;;;;;9.18;5.03;;;;;27.70;100858.00;;;;10460216;28;20700;-78
2021/06/28 11:41:08;;;;;;;5.93;4.63;;;;;28.90;100848.00;;;;10488383;28;20201;-78
2021/06/28 11:46:16;;;;;;;6.90;4.32;;;;;28.80;100845.00;;;;10488464;28;20216;-78
2021/06/28 11:51:51;;;;;;;6.15;4.95;;;;;28.20;100856.00;;;;10494487;28;20214;-77
2021/06/28 11:56:59;;;;;;;6.47;5.50;;;;;27.90;100868.00;;;;10469473;28;20243;-78
2021/06/28 12:02:04;;;;;;;7.35;6.70;;;;;27.30;100878.00;;;;10488387;28;20189;-77
2021/06/28 12:07:06;;;;;;;6.30;4.40;;;;;26.70;100889.00;;;;10455726;28;20239;-77
2021/06/28 12:12:12;;;;;;;5.10;3.63;;;;;26.20;100903.00;;;;10455366;28;20190;-77
2021/06/28 12:17:23;;;;;;;5.60;4.28;;;;;24.80;100912.00;;;;10471380;28;20185;-77
2021/06/28 12:22:29;;;;;;;6.97;3.83;;;;;24.00;100934.00;;;;10471229;28;20197;-77
2021/06/28 12:27:33;;;;;;;4.25;3.72;;;;;23.50;100938.00;;;;10486715;28;20209;-77
2021/06/28 12:32:44;;;;;;;4.03;3.67;;;;;23.00;100948.00;;;;10463774;28;20221;-77
2021/06/28 12:37:50;;;;;;;4.20;3.72;;;;;22.80;100947.00;;;;10462811;28;20297;-77
2021/06/28 12:42:54;;;;;;;4.25;3.70;;;;;22.80;100936.00;;;;10505864;28;20205;-77
2021/06/28 12:47:57;;;;;;;4.63;3.83;;;;;23.50;100932.00;;;;10511356;28;20628;-77
2021/06/28 12:52:59;;;;;;;5.05;4.07;;;;;25.00;100920.00;;;;10497701;28;20286;-77
2021/06/28 12:58:13;;;;;;;7.15;4.22;;;;;26.30;100920.00;;;;10545929;28;20185;-77
2021/06/28 13:03:17;;;;;;;6.22;3.95;;;;;26.70;100913.00;;;;10527629;28;20231;-77
2021/06/28 13:08:29;;;;;;;4.72;3.78;;;;;26.80;100904.00;;;;10493954;28;20307;-77
2021/06/28 13:13:44;;;;;;;6.30;3.25;;;;;26.60;100912.00;;;;10510324;28;20702;-77
2021/06/28 13:19:07;;;;;;;7.10;3.13;;;;;26.40;100913.00;;;;10510502;28;20188;-77
2021/06/28 13:24:18;;;;;;;3.08;2.50;;;;;26.20;100909.00;;;;10508094;28;20194;-77
2021/06/28 13:29:20;;;;;;;3.60;2.33;;;;;26.40;100890.00;;;;10468370;28;20251;-77
2021/06/28 13:34:27;;;;;;;3.50;2.05;;;;;26.20;100899.00;;;;10489484;28;20209;-77
2021/06/28 13:39:49;;;;;;;2.88;2.20;;;;;26.20;100898.00;;;;10525485;28;20227;-77
2021/06/28 13:45:06;;;;;;;2.92;1.92;;;;;26.70;100906.00;;;;10525787;28;20207;-77
2021/06/28 13:50:15;;;;;;;8.98;2.47;;;;;27.80;100896.00;;;;10522825;28;20722;-77
2021/06/28 13:55:17;;;;;;;2.03;1.80;;;;;28.70;100888.00;;;;10482545;28;20186;-77
2021/06/28 14:00:23;;;;;;;2.92;2.50;;;;;28.80;100894.00;;;;10467540;28;20304;-77
2021/06/28 14:05:25;;;;;;;2.13;1.88;;;;;29.10;100885.00;;;;10467037;28;20186;-77
2021/06/28 14:10:28;;;;;;;2.72;2.38;;;;;28.50;100887.00;;;;10482775;28;20912;-77
2021/06/28 14:15:30;;;;;;;2.97;2.10;;;;;31.00;100888.00;;;;10506582;28;20566;-77
2021/06/28 14:20:33;;;;;;;2.28;2.08;;;;;30.00;100888.00;;;;10517225;28;20991;-77
2021/06/28 14:25:35;;;;;;;2.15;2.05;;;;;28.40;100891.00;;;;10493593;28;20225;-78
2021/06/28 14:30:37;;;;;;;1.70;1.60;;;;;28.10;100897.00;;;;10481493;28;20247;-78
2021/06/28 14:35:40;;;;;;;2.83;1.90;;;;;28.60;100892.00;;;;10498351;28;20273;-78
2021/06/28 14:40:42;;;;;;;1.58;1.48;;;;;27.90;100893.00;;;;10465744;28;20271;-77
2021/06/28 14:45:45;;;;;;;3.08;2.72;;;;;27.80;100888.00;;;;10450780;28;20201;-78
2021/06/28 14:50:47;;;;;;;3.33;1.60;;;;;28.00;100890.00;;;;10465305;28;20213;-77
2021/06/28 14:55:51;;;;;;;1.73;1.63;;;;;28.00;100896.00;;;;10516085;28;20258;-77
2021/06/28 15:00:53;;;;;;;2.05;1.50;;;;;28.40;100897.00;;;;10491155;28;20189;-78
2021/06/28 15:05:56;;;;;;;1.95;1.33;;;;;29.10;100901.00;;;;10507739;28;20687;-78
2021/06/28 15:10:58;;;;;;;1.70;1.58;;;;;31.10;100891.00;;;;10511214;28;20227;-77
2021/06/28 15:16:01;;;;;;;1.52;1.42;;;;;31.10;100889.00;;;;10490153;28;20209;-78
2021/06/28 15:21:04;;;;;;;2.20;1.70;;;;;30.90;100884.00;;;;10507154;28;20272;-78
2021/06/28 15:26:06;;;;;;;2.25;1.73;;;;;30.30;100858.00;;;;10506588;28;20200;-78
2021/06/28 15:31:10;;;;;;;1.50;1.40;;;;;34.10;100858.00;;;;10505898;28;20217;-78
2021/06/28 15:36:12;;;;;;;1.85;1.70;;;;;31.90;100880.00;;;;10506708;28;20235;-77
2021/06/28 15:41:14;;;;;;;4.53;2.03;;;;;29.20;100860.00;;;;10485687;28;20243;-78
2021/06/28 15:46:17;;;;;;;3.30;1.67;;;;;27.40;100855.00;;;;10448453;28;20197;-77
2021/06/28 15:51:19;;;;;;;2.13;1.92;;;;;26.80;100848.00;;;;10464874;28;20217;-78
2021/06/28 15:56:21;;;;;;;2.45;1.70;;;;;26.90;100858.00;;;;10499299;28;20724;-78
2021/06/28 16:01:29;;;;;;;2.72;1.98;;;;;26.80;100858.00;;;;10481341;28;20197;-78
2021/06/28 16:06:32;;;;;;;2.33;2.03;;;;;26.90;100850.00;;;;10465528;28;20368;-77
2021/06/28 16:11:34;;;;;;;1.92;1.83;;;;;26.30;100849.00;;;;10464206;28;20620;-77
2021/06/28 16:16:36;;;;;;;1.60;1.50;;;;;26.30;100837.00;;;;10463519;28;20671;-78
2021/06/28 16:21:38;;;;;;;1.77;1.65;;;;;26.30;100831.00;;;;10470445;28;20190;-77
2021/06/28 16:26:40;;;;;;;3.47;1.95;;;;;26.20;100824.00;;;;10454862;28;20201;-77
2021/06/28 16:31:45;;;;;;;1.83;1.45;;;;;26.40;100825.00;;;;10487089;28;20213;-77
2021/06/28 16:36:47;;;;;;;1.60;1.50;;;;;26.60;100821.00;;;;10471490;28;20204;-77
2021/06/28 16:41:49;;;;;;;2.03;1.50;;;;;26.50;100814.00;;;;10487447;28;20197;-77
2021/06/28 16:46:51;;;;;;;1.48;1.38;;;;;26.00;100810.00;;;;10502085;28;20193;-77
2021/06/28 16:51:53;;;;;;;1.50;1.40;;;;;25.80;100809.00;;;;10503332;28;20773;-78
2021/06/28 16:56:55;;;;;;;1.67;1.58;;;;;25.70;100804.00;;;;10487407;28;20185;-78
2021/06/28 17:01:57;;;;;;;1.58;1.48;;;;;25.80;100811.00;;;;10454191;28;20189;-78
2021/06/28 17:07:01;;;;;;;3.03;1.58;;;;;25.70;100817.00;;;;10486041;28;20592;-78
2021/06/28 17:12:04;;;;;;;2.75;1.77;;;;;25.60;100823.00;;;;10469912;28;20255;-78
2021/06/28 17:17:06;;;;;;;1.45;1.35;;;;;25.50;100816.00;;;;10453105;28;20224;-77
2021/06/28 17:22:08;;;;;;;2.80;2.30;;;;;25.20;100809.00;;;;10454629;28;20296;-77
2021/06/28 17:27:10;;;;;;;2.67;2.10;;;;;24.70;100816.00;;;;10510166;28;20239;-77
2021/06/28 17:32:12;;;;;;;4.95;2.53;;;;;24.50;100807.00;;;;10492998;28;20616;-77
2021/06/28 17:37:14;;;;;;;2.78;2.58;;;;;24.50;100804.00;;;;10509665;28;20196;-77
2021/06/28 17:42:16;;;;;;;3.22;2.47;;;;;24.40;100794.00;;;;10526814;28;20189;-78
2021/06/28 17:47:19;;;;;;;3.47;2.50;;;;;24.40;100807.00;;;;10509306;28;20254;-78
2021/06/28 17:52:21;;;;;;;2.60;2.40;;;;;24.40;100814.00;;;;10492942;28;20185;-77
2021/06/28 17:57:25;;;;;;;2.42;2.20;;;;;24.20;100810.00;;;;10525063;28;20199;-78
2021/06/28 18:02:27;;;;;;;3.22;2.30;;;;;24.10;100804.00;;;;10509079;28;20189;-77
2021/06/28 18:07:29;;;;;;;3.67;2.92;;;;;24.10;100796.00;;;;10509132;28;20209;-77
2021/06/28 18:12:31;;;;;;;3.45;3.15;;;;;23.80;100795.00;;;;10483517;28;20197;-77
2021/06/28 18:17:34;;;;;;;4.72;3.13;;;;;23.70;100794.00;;;;10467154;28;20251;-77
2021/06/28 18:22:36;;;;;;;7.05;3.80;;;;;23.60;100797.00;;;;10478636;28;20249;-77
2021/06/28 18:27:38;;;;;;;6.72;4.25;;;;;23.40;100802.00;;;;10549621;28;20246;-78
2021/06/28 18:32:40;;;;;;;7.88;4.85;;;;;23.30;100810.00;;;;10557789;28;20564;-78
2021/06/28 18:37:47;;;;;;;6.93;4.38;;;;;23.30;100821.00;;;;10507513;28;20228;-77
2021/06/28 18:42:49;;;;;;;8.25;4.97;;;;;23.30;100826.00;;;;10506874;28;20188;-77
2021/06/28 18:47:51;;;;;;;6.60;4.40;;;;;23.20;100822.00;;;;10507730;28;20254;-77
2021/06/28 18:52:53;;;;;;;7.88;5.15;;;;;23.10;100816.00;;;;10499826;28;20201;-77
2021/06/28 18:57:55;;;;;;;6.32;4.30;;;;;23.00;100820.00;;;;10481757;28;20189;-77
2021/06/28 19:03:31;;;;;;;7.90;4.57;;;;;22.80;100811.00;;;;10481565;28;20247;-77
2021/06/28 19:08:25;;;;;;;7.80;4.20;;;;;22.80;100815.00;;;;10480986;28;20711;-78
2021/06/28 19:13:27;;;;;;;7.85;4.90;;;;;22.70;100817.00;;;;10481667;28;20209;-77
2021/06/28 19:18:30;;;;;;;7.95;5.20;;;;;22.60;100820.00;;;;10466063;28;20185;-77
2021/06/28 19:23:33;;;;;;;8.02;4.88;;;;;22.30;100810.00;;;;10479635;28;20777;-77
2021/06/28 19:28:37;;;;;;;7.50;4.70;;;;;22.20;100812.00;;;;10506642;28;20211;-78
2021/06/28 19:33:39;;;;;;;5.97;4.55;;;;;21.80;100826.00;;;;10522807;28;20208;-78
2021/06/28 19:38:41;;;;;;;8.75;5.30;;;;;21.60;100835.00;;;;10522349;28;20188;-77
2021/06/28 19:43:44;;;;;;;6.40;4.90;;;;;21.40;100831.00;;;;10479868;28;20232;-77
2021/06/28 19:48:46;;;;;;;5.95;4.03;;;;;21.20;100822.00;;;;10463998;28;20212;-77
2021/06/28 19:53:49;;;;;;;8.32;5.00;;;;;21.00;100825.00;;;;10465320;28;20193;-77
2021/06/28 19:58:51;;;;;;;7.60;4.57;;;;;20.80;100812.00;;;;10487738;28;20861;-77
2021/06/28 20:04:12;;;;;;;6.40;4.57;;;;;20.60;100801.00;;;;10490481;28;20178;-77
2021/06/28 20:09:14;;;;;;;7.65;5.10;;;;;20.40;100800.00;;;;10487214;28;20213;-77
2021/06/28 20:14:16;;;;;;;8.93;5.32;;;;;20.20;100811.00;;;;10487271;28;20197;-77
2021/06/28 20:19:23;;;;;;;8.77;5.43;;;;;20.10;100799.00;;;;10487234;28;20181;-77
2021/06/28 20:24:25;;;;;;;9.30;5.35;;;;;20.00;100817.00;;;;10491315;28;20212;-77
2021/06/28 20:29:27;;;;;;;8.38;6.07;;;;;19.90;100821.00;;;;10511174;28;20211;-77
2021/06/28 20:34:30;;;;;;;10.52;6.40;;;;;19.80;100813.00;;;;10511776;28;20201;-76
2021/06/28 20:39:34;;;;;;;11.60;6.47;;;;;19.70;100817.00;;;;10511402;28;20200;-77
2021/06/28 20:44:36;;;;;;;7.93;6.07;;;;;19.70;100814.00;;;;10527999;28;20189;-77
2021/06/28 20:49:38;;;;;;;10.10;6.97;;;;;19.60;100824.00;;;;10494742;28;20212;-77
2021/06/28 20:54:40;;;;;;;9.45;6.18;;;;;19.50;100832.00;;;;10471837;28;20197;-77
2021/06/28 20:59:41;;;;;;;8.80;6.45;;;;;19.40;100833.00;;;;10470023;28;20189;-77
2021/06/28 21:04:43;;;;;;;10.20;6.53;;;;;19.30;100850.00;;;;10468309;28;20526;-77
2021/06/28 21:09:45;;;;;;;9.48;7.38;;;;;19.20;100858.00;;;;10485287;28;20202;-77
2021/06/28 21:14:47;;;;;;;10.10;7.07;;;;;19.10;100851.00;;;;10452003;28;20292;-77
2021/06/28 21:19:49;;;;;;;8.32;6.85;;;;;19.10;100844.00;;;;10467382;28;20185;-77
2021/06/28 21:24:51;;;;;;;8.90;6.47;;;;;19.10;100877.00;;;;10468664;28;20196;-77
2021/06/28 21:29:53;;;;;;;13.63;8.23;;;;;19.10;100871.00;;;;10469402;28;20282;-77
2021/06/28 21:34:55;;;;;;;10.95;8.25;;;;;19.20;100871.00;;;;10501316;28;20290;-77
2021/06/28 21:39:57;;;;;;;9.95;8.63;;;;;19.30;100854.00;;;;10450439;28;20197;-77
2021/06/28 21:44:59;;;;;;;10.43;7.72;;;;;19.30;100861.00;;;;10468123;28;20225;-77
2021/06/28 21:50:02;;;;;;;10.57;8.18;;;;;19.20;100870.00;;;;10468209;28;20202;-77
2021/06/28 21:55:04;;;;;;;10.77;7.63;;;;;19.10;100846.00;;;;10494024;28;20258;-77
2021/06/28 22:00:10;;;;;;;8.05;6.97;;;;;19.10;100843.00;;;;10509165;28;20185;-76
2021/06/28 22:05:15;;;;;;;8.18;7.30;;;;;19.00;100858.00;;;;10492373;28;20193;-77
2021/06/28 22:10:17;;;;;;;9.18;7.80;;;;;19.00;100849.00;;;;10492357;28;20219;-77
2021/06/28 22:15:19;;;;;;;9.45;7.55;;;;;19.00;100839.00;;;;10508701;28;20250;-77
2021/06/28 22:20:25;;;;;;;9.15;7.95;;;;;18.90;100833.00;;;;10491195;28;20193;-77
2021/06/28 22:25:27;;;;;;;10.25;7.55;;;;;18.90;100831.00;;;;10495177;28;20193;-77
2021/06/28 22:30:29;;;;;;;11.80;8.75;;;;;18.80;100819.00;;;;10483398;28;20613;-77
2021/06/28 22:35:31;;;;;;;11.07;8.63;;;;;18.80;100810.00;;;;10472875;28;20217;-77
2021/06/28 22:40:33;;;;;;;11.70;8.85;;;;;18.70;100799.00;;;;10449380;28;20197;-77
2021/06/28 22:45:35;;;;;;;10.57;8.38;;;;;18.70;100782.00;;;;10486692;28;20219;-77
2021/06/28 22:50:37;;;;;;;9.40;8.38;;;;;18.60;100786.00;;;;10524103;28;20197;-77
2021/06/28 22:55:39;;;;;;;9.25;7.75;;;;;18.50;100785.00;;;;10499458;28;20224;-77
2021/06/28 23:00:41;;;;;;;10.90;8.32;;;;;18.50;100773.00;;;;10465700;28;20248;-77
2021/06/28 23:05:43;;;;;;;13.23;10.68;;;;;18.50;100771.00;;;;10465298;28;20194;-77
2021/06/28 23:10:45;;;;;;;19.55;16.65;;;;;18.50;100768.00;;;;10482296;28;20628;-77
2021/06/28 23:15:47;;;;;;;25.13;20.58;;;;;18.50;100771.00;;;;10482036;28;20198;-77
2021/06/28 23:20:49;;;;;;;33.35;25.65;;;;;18.50;100772.00;;;;10465616;28;20189;-77
2021/06/28 23:25:51;;;;;;;47.30;33.78;;;;;18.50;100790.00;;;;10464211;28;20197;-76
2021/06/28 23:30:53;;;;;;;49.40;35.20;;;;;18.50;100779.00;;;;10468972;28;20225;-77
2021/06/28 23:35:55;;;;;;;57.78;39.70;;;;;18.40;100757.00;;;;10456956;28;20256;-77
2021/06/28 23:40:57;;;;;;;64.20;41.92;;;;;18.40;100763.00;;;;10489128;28;20251;-77
2021/06/28 23:45:59;;;;;;;68.45;45.42;;;;;18.30;100773.00;;;;10489663;28;20629;-77
2021/06/28 23:51:01;;;;;;;77.35;51.03;;;;;18.30;100777.00;;;;10488662;28;20292;-77
2021/06/28 23:56:04;;;;;;;84.05;53.83;;;;;18.20;100780.00;;;;10532474;28;20235;-77
